createdAt,value
2018-07-13T00:00:42.417Z,2.03
2018-07-13T00:05:45.673Z,2.97
2018-07-13T00:10:48.921Z,2.70
2018-07-13T00:15:51.396Z,2.33
2018-07-13T00:20:54.712Z,2.57
2018-07-13T00:25:57.177Z,3.37
2018-07-13T00:30:59.701Z,2.53
2018-07-13T00:36:02.186Z,2.90
2018-07-13T00:41:06.025Z,2.00
2018-07-13T00:46:09.277Z,2.80
2018-07-13T00:51:11.777Z,2.47
2018-07-13T00:56:14.265Z,2.87
2018-07-13T01:01:16.757Z,2.80
2018-07-13T01:06:19.265Z,2.50
2018-07-13T01:11:21.760Z,2.40
2018-07-13T01:16:24.245Z,2.33
2018-07-13T01:21:26.732Z,2.23
2018-07-13T01:26:29.245Z,2.40
2018-07-13T01:31:31.755Z,2.00
2018-07-13T01:36:34.252Z,1.83
2018-07-13T01:41:37.606Z,2.20
2018-07-13T01:46:40.194Z,2.10
2018-07-13T01:51:42.703Z,2.00
2018-07-13T01:56:45.961Z,2.47
2018-07-13T02:01:48.747Z,3.77
2018-07-13T02:06:51.253Z,2.53
2018-07-13T02:11:53.849Z,2.60
2018-07-13T02:16:57.354Z,2.20
2018-07-13T02:21:59.964Z,2.63
2018-07-13T02:27:03.179Z,2.73
2018-07-13T02:32:05.991Z,2.50
2018-07-13T02:37:10.931Z,3.30
2018-07-13T02:42:13.784Z,3.50
2018-07-13T02:47:16.558Z,2.00
2018-07-13T02:52:19.547Z,2.73
2018-07-13T02:57:22.755Z,2.50
2018-07-13T03:02:25.310Z,2.63
2018-07-13T03:07:28.909Z,2.97
2018-07-13T03:12:31.774Z,2.77
2018-07-13T03:17:34.514Z,2.60
2018-07-13T03:22:37.318Z,2.30
2018-07-13T03:27:39.903Z,2.60
2018-07-13T03:32:42.623Z,2.60
2018-07-13T03:37:45.897Z,2.57
2018-07-13T03:42:49.272Z,2.93
2018-07-13T03:47:53.230Z,3.57
2018-07-13T03:52:55.793Z,3.50
2018-07-13T03:57:58.375Z,3.17
2018-07-13T04:03:01.603Z,2.73
2018-07-13T04:08:04.511Z,3.60
2018-07-13T04:13:07.058Z,2.67
2018-07-13T04:18:10.266Z,2.80
2018-07-13T04:23:12.825Z,3.10
2018-07-13T04:28:16.156Z,2.93
2018-07-13T04:33:19.663Z,2.33
2018-07-13T04:38:22.195Z,2.90
2018-07-13T04:43:24.765Z,2.67
2018-07-13T04:48:27.558Z,2.23
2018-07-13T04:53:30.071Z,2.87
2018-07-13T04:58:32.789Z,3.50
2018-07-13T05:03:35.372Z,3.40
2018-07-13T05:08:38.836Z,2.73
2018-07-13T05:13:41.353Z,3.03
2018-07-13T05:18:43.900Z,2.90
2018-07-13T05:23:46.510Z,3.30
2018-07-13T05:28:49.421Z,3.10
2018-07-13T05:33:52.005Z,3.43
2018-07-13T05:38:55.693Z,3.33
2018-07-13T05:43:58.430Z,3.50
2018-07-13T05:49:02.054Z,3.13
2018-07-13T05:54:05.577Z,3.23
2018-07-13T05:59:08.367Z,3.03
2018-07-13T06:04:11.148Z,2.83
2018-07-13T06:09:13.640Z,2.63
2018-07-13T06:14:16.185Z,3.17
2018-07-13T06:19:18.960Z,3.37
2018-07-13T06:24:21.598Z,2.40
2018-07-13T06:29:24.712Z,2.93
2018-07-13T06:34:27.288Z,3.10
2018-07-13T06:39:30.010Z,2.60
2018-07-13T06:44:32.530Z,2.67
2018-07-13T06:49:35.154Z,2.63
2018-07-13T06:54:37.912Z,2.30
2018-07-13T06:59:41.232Z,2.30
2018-07-13T07:04:43.810Z,2.60
2018-07-13T07:09:46.336Z,2.43
2018-07-13T07:14:48.849Z,2.83
2018-07-13T07:19:51.395Z,2.57
2018-07-13T07:24:53.977Z,1.97
2018-07-13T07:29:57.131Z,2.20
2018-07-13T07:34:59.749Z,2.10
2018-07-13T07:40:03.113Z,2.60
2018-07-13T07:45:06.563Z,1.90
2018-07-13T07:50:09.351Z,2.27
2018-07-13T07:55:12.106Z,2.50
2018-07-13T08:00:14.984Z,1.83
2018-07-13T08:05:18.245Z,1.83
2018-07-13T08:10:20.733Z,2.53
2018-07-13T08:15:23.221Z,2.30
2018-07-13T08:20:25.812Z,2.20
2018-07-13T08:25:28.299Z,2.70
2018-07-13T08:30:30.801Z,1.70
2018-07-13T08:35:35.251Z,2.37
2018-07-13T08:40:37.839Z,2.50
2018-07-13T08:45:40.493Z,2.47
2018-07-13T08:50:44.596Z,2.70
2018-07-13T08:55:47.228Z,2.60
2018-07-13T09:00:49.867Z,2.23
2018-07-13T09:05:52.609Z,2.33
2018-07-13T09:10:55.540Z,1.97
2018-07-13T09:15:58.351Z,2.40
2018-07-13T09:21:00.888Z,2.50
2018-07-13T09:26:03.592Z,2.10
2018-07-13T09:31:06.439Z,2.40
2018-07-13T09:36:08.940Z,2.00
2018-07-13T09:46:20.619Z,2.53
2018-07-13T09:51:23.102Z,2.20
2018-07-13T09:56:25.743Z,2.10
2018-07-13T10:01:29.750Z,2.60
2018-07-13T10:06:32.328Z,2.30
2018-07-13T10:11:34.949Z,2.83
2018-07-13T10:16:37.720Z,2.60
2018-07-13T10:21:40.232Z,2.00
2018-07-13T10:26:42.772Z,2.07
2018-07-13T10:31:45.283Z,1.97
2018-07-13T10:36:47.855Z,2.10
2018-07-13T10:41:50.662Z,2.20
2018-07-13T10:46:53.222Z,2.53
2018-07-13T10:51:56.229Z,2.30
2018-07-13T10:56:58.918Z,2.10
2018-07-13T11:02:01.408Z,2.50
2018-07-13T11:07:03.917Z,1.70
2018-07-13T11:12:07.172Z,1.97
2018-07-13T11:17:09.697Z,1.60
2018-07-13T11:22:12.197Z,2.53
2018-07-13T11:27:14.695Z,2.07
2018-07-13T11:32:17.188Z,2.30
2018-07-13T11:37:19.783Z,2.10
2018-07-13T11:42:22.172Z,2.00
2018-07-13T11:47:24.674Z,2.00
2018-07-13T11:52:27.175Z,2.13
2018-07-13T11:57:29.669Z,2.30
2018-07-13T12:02:32.185Z,2.60
2018-07-13T12:07:34.753Z,2.40
2018-07-13T12:12:37.225Z,2.43
2018-07-13T12:17:39.700Z,2.03
2018-07-13T12:22:42.161Z,1.93
2018-07-13T12:27:44.670Z,2.30
2018-07-13T12:32:47.162Z,2.00
2018-07-13T12:37:49.655Z,2.17
2018-07-13T12:48:04.408Z,2.10
2018-07-13T12:53:06.876Z,2.37
2018-07-13T12:58:09.369Z,2.10
2018-07-13T13:03:11.853Z,2.20
2018-07-13T13:08:14.343Z,1.77
2018-07-13T13:13:16.832Z,1.93
2018-07-13T13:18:19.315Z,2.27
2018-07-13T13:23:21.837Z,2.10
2018-07-13T13:28:24.323Z,2.07
2018-07-13T13:33:26.797Z,2.20
2018-07-13T13:38:29.289Z,2.50
2018-07-13T13:43:31.782Z,2.20
2018-07-13T13:48:34.277Z,2.20
2018-07-13T13:53:37.541Z,2.60
2018-07-13T13:58:40.013Z,2.03
2018-07-13T14:03:42.501Z,1.87
2018-07-13T14:08:44.977Z,1.70
2018-07-13T14:13:47.457Z,1.93
2018-07-13T14:18:49.936Z,1.73
2018-07-13T14:23:52.420Z,2.20
2018-07-13T14:28:54.909Z,2.50
2018-07-13T14:33:57.398Z,2.23
2018-07-13T14:38:59.883Z,1.83
2018-07-13T14:44:02.369Z,2.10
2018-07-13T14:49:05.636Z,2.40
2018-07-13T14:54:08.121Z,1.60
2018-07-13T14:59:10.637Z,2.00
2018-07-13T15:04:13.151Z,2.20
2018-07-13T15:09:15.614Z,2.30
2018-07-13T15:14:18.097Z,1.93
2018-07-13T15:19:20.581Z,2.10
2018-07-13T15:24:23.061Z,2.03
2018-07-13T15:29:26.309Z,2.23
2018-07-13T15:34:28.792Z,1.90
2018-07-13T15:39:31.274Z,2.47
2018-07-13T15:44:34.520Z,2.20
2018-07-13T15:49:37.000Z,2.27
2018-07-13T15:54:39.485Z,2.20
2018-07-13T15:59:41.975Z,1.93
2018-07-13T16:04:44.452Z,2.57
2018-07-13T16:09:46.977Z,2.37
2018-07-13T16:14:49.469Z,2.30
2018-07-13T16:19:51.972Z,2.23
2018-07-13T16:24:54.454Z,2.50
2018-07-13T16:29:56.977Z,2.20
2018-07-13T16:35:00.181Z,2.03
2018-07-13T16:40:03.508Z,2.03
2018-07-13T16:45:06.171Z,2.23
2018-07-13T16:50:09.409Z,2.30
2018-07-13T16:55:11.888Z,1.83
2018-07-13T17:00:14.374Z,2.10
2018-07-13T17:05:16.866Z,2.27
2018-07-13T17:10:19.403Z,2.10
2018-07-13T17:15:22.721Z,2.63
2018-07-13T17:20:25.293Z,2.60
2018-07-13T17:25:27.737Z,2.03
2018-07-13T17:30:30.315Z,2.10
2018-07-13T17:35:32.809Z,2.23
2018-07-13T17:40:35.311Z,2.30
2018-07-13T17:45:38.633Z,2.50
2018-07-13T17:50:41.130Z,2.10
2018-07-13T17:55:43.611Z,2.07
2018-07-13T18:00:46.371Z,2.43
2018-07-13T18:05:49.642Z,1.67
2018-07-13T18:10:52.154Z,2.37
2018-07-13T18:15:55.427Z,2.27
2018-07-13T18:20:57.954Z,2.07
2018-07-13T18:26:01.241Z,2.30
2018-07-13T18:31:03.785Z,2.00
2018-07-13T18:36:06.370Z,2.10
2018-07-13T18:41:11.634Z,2.50
2018-07-13T18:46:14.093Z,2.43
2018-07-13T18:51:16.591Z,2.53
2018-07-13T18:56:19.061Z,2.40
2018-07-13T19:01:21.543Z,1.90
2018-07-13T19:06:24.120Z,2.67
2018-07-13T19:11:27.434Z,2.20
2018-07-13T19:16:29.897Z,2.60
2018-07-13T19:21:32.432Z,2.20
2018-07-13T19:26:34.937Z,2.27
2018-07-13T19:31:37.424Z,2.80
2018-07-13T19:36:39.929Z,3.30
2018-07-13T19:41:42.526Z,2.80
2018-07-13T19:46:45.781Z,2.87
2018-07-13T19:51:48.287Z,2.60
2018-07-13T19:56:50.773Z,3.13
2018-07-13T20:01:53.460Z,4.10
2018-07-13T20:06:56.129Z,3.00
2018-07-13T20:11:58.980Z,2.47
2018-07-13T20:17:01.745Z,3.13
2018-07-13T20:22:04.349Z,2.73
2018-07-13T20:27:06.892Z,3.03
2018-07-13T20:32:09.593Z,3.10
2018-07-13T20:37:12.524Z,2.70
2018-07-13T20:42:16.370Z,3.10
2018-07-13T20:47:19.534Z,2.73
2018-07-13T20:52:22.288Z,2.90
2018-07-13T20:57:25.031Z,3.00
2018-07-13T21:02:27.708Z,2.80
2018-07-13T21:07:30.377Z,2.87
2018-07-13T21:12:32.962Z,3.10
2018-07-13T21:17:36.437Z,2.57
2018-07-13T21:22:39.859Z,2.90
2018-07-13T21:27:42.505Z,2.67
2018-07-13T21:32:45.104Z,2.90
2018-07-13T21:37:48.471Z,2.70
2018-07-13T21:42:51.139Z,3.00
2018-07-13T21:47:53.779Z,3.50
2018-07-13T21:52:56.485Z,3.07
2018-07-13T21:57:59.120Z,2.90
2018-07-13T22:03:01.980Z,2.70
2018-07-13T22:08:04.782Z,3.70
2018-07-13T22:13:07.473Z,2.40
2018-07-13T22:18:10.774Z,2.90
2018-07-13T22:23:14.382Z,2.37
2018-07-13T22:28:16.933Z,2.83
2018-07-13T22:33:20.373Z,3.20
2018-07-13T22:38:23.021Z,3.03
2018-07-13T22:43:26.542Z,3.33
2018-07-13T22:48:29.278Z,3.77
2018-07-13T22:53:33.647Z,3.37
2018-07-13T22:58:36.258Z,3.90
2018-07-13T23:03:38.919Z,3.40
2018-07-13T23:08:41.586Z,2.77
2018-07-13T23:13:44.357Z,2.80
2018-07-13T23:18:47.288Z,3.30
2018-07-13T23:23:49.915Z,3.30
2018-07-13T23:28:52.492Z,3.87
2018-07-13T23:33:55.087Z,3.10
2018-07-13T23:38:57.703Z,2.80
2018-07-13T23:44:00.303Z,3.60
2018-07-13T23:49:03.341Z,4.27
2018-07-13T23:54:06.012Z,3.60
2018-07-13T23:59:08.737Z,3.53
